createdAt,value
2023-02-13T00:00:13.624Z,89.07
2023-02-13T00:02:40.143Z,93.13
2023-02-13T00:05:06.763Z,103.25
2023-02-13T00:07:33.243Z,106.93
2023-02-13T00:09:59.745Z,111.18
2023-02-13T00:12:26.211Z,122.30
2023-02-13T00:14:52.636Z,135.40
2023-02-13T00:17:19.108Z,127.97
2023-02-13T00:19:45.547Z,125.50
2023-02-13T00:22:12.185Z,127.03
2023-02-13T00:24:38.623Z,122.50
2023-02-13T00:27:05.020Z,124.65
2023-02-13T00:29:31.434Z,120.95
2023-02-13T00:31:58.000Z,114.95
2023-02-13T00:34:24.519Z,109.38
2023-02-13T00:36:50.948Z,117.78
2023-02-13T00:39:17.462Z,100.80
2023-02-13T00:41:43.978Z,105.88
2023-02-13T00:44:10.931Z,112.53
2023-02-13T00:46:38.793Z,101.18
2023-02-13T00:49:05.648Z,103.93
2023-02-13T00:51:32.174Z,120.07
2023-02-13T00:53:58.631Z,113.35
2023-02-13T00:56:25.150Z,114.80
2023-02-13T00:58:51.576Z,126.53
2023-02-13T01:01:18.149Z,127.00
2023-02-13T01:03:44.768Z,119.55
2023-02-13T01:06:11.293Z,126.57
2023-02-13T01:08:41.610Z,111.43
2023-02-13T01:11:08.241Z,104.90
2023-02-13T01:13:34.756Z,121.03
2023-02-13T01:16:01.405Z,108.20
2023-02-13T01:18:28.170Z,105.22
2023-02-13T01:21:17.679Z,111.68
2023-02-13T01:23:44.223Z,119.65
2023-02-13T01:26:11.528Z,118.05
2023-02-13T01:28:38.077Z,121.50
2023-02-13T01:31:04.766Z,119.85
2023-02-13T01:33:31.447Z,123.88
2023-02-13T01:35:58.277Z,110.13
2023-02-13T01:38:24.766Z,120.78
2023-02-13T01:40:52.286Z,111.03
2023-02-13T01:43:19.166Z,119.82
2023-02-13T01:45:47.194Z,96.22
2023-02-13T01:48:15.993Z,97.13
2023-02-13T01:51:05.709Z,118.15
2023-02-13T01:53:33.854Z,111.53
2023-02-13T01:56:06.736Z,114.45
2023-02-13T01:58:35.669Z,110.75
2023-02-13T02:01:03.022Z,109.25
2023-02-13T02:03:32.355Z,108.30
2023-02-13T02:05:59.748Z,100.25
2023-02-13T02:08:26.373Z,114.65
2023-02-13T02:10:53.527Z,132.18
2023-02-13T02:13:21.173Z,123.63
2023-02-13T02:15:48.926Z,112.45
2023-02-13T02:18:19.800Z,110.68
2023-02-13T02:21:01.357Z,106.10
2023-02-13T02:23:45.858Z,117.50
2023-02-13T02:26:12.372Z,108.32
2023-02-13T02:28:38.807Z,117.57
2023-02-13T02:31:20.705Z,104.18
2023-02-13T02:33:47.124Z,116.13
2023-02-13T02:36:32.059Z,130.43
2023-02-13T02:39:01.558Z,133.07
2023-02-13T02:41:42.173Z,123.32
2023-02-13T02:44:28.819Z,134.18
2023-02-13T02:47:28.387Z,124.15
2023-02-13T02:50:08.452Z,134.68
2023-02-13T02:52:52.046Z,132.85
2023-02-13T02:55:29.109Z,129.05
2023-02-13T02:58:20.418Z,116.85
2023-02-13T03:01:06.992Z,82.13
2023-02-13T03:03:52.747Z,102.00
2023-02-13T03:06:40.776Z,106.97
2023-02-13T03:09:32.038Z,98.50
2023-02-13T03:12:17.599Z,86.10
2023-02-13T03:14:44.513Z,99.13
2023-02-13T03:17:34.638Z,107.43
2023-02-13T03:20:19.460Z,99.85
2023-02-13T03:22:45.872Z,92.18
2023-02-13T03:25:30.453Z,110.28
2023-02-13T03:28:33.787Z,111.28
2023-02-13T03:31:15.333Z,125.95
2023-02-13T03:33:45.002Z,118.70
2023-02-13T03:36:29.721Z,127.15
2023-02-13T03:38:59.936Z,135.30
2023-02-13T03:41:30.215Z,117.97
2023-02-13T03:43:56.668Z,130.13
2023-02-13T03:46:24.514Z,117.53
2023-02-13T03:49:09.796Z,115.45
2023-02-13T03:51:54.842Z,115.47
2023-02-13T03:54:42.209Z,127.78
2023-02-13T03:57:28.073Z,118.28
2023-02-13T03:59:55.133Z,123.60
2023-02-13T04:02:24.603Z,113.68
2023-02-13T04:05:02.161Z,117.10
2023-02-13T04:07:30.716Z,112.03
2023-02-13T04:09:59.006Z,106.15
2023-02-13T04:12:35.617Z,118.93
2023-02-13T04:15:24.802Z,125.75
2023-02-13T04:17:56.849Z,123.88
2023-02-13T04:20:26.616Z,114.30
2023-02-13T04:22:53.091Z,115.03
2023-02-13T04:25:20.034Z,125.00
2023-02-13T04:27:46.478Z,133.23
2023-02-13T04:30:13.157Z,122.35
2023-02-13T04:32:39.628Z,116.15
2023-02-13T04:35:06.341Z,109.88
2023-02-13T04:37:32.797Z,121.53
2023-02-13T04:39:59.205Z,104.85
2023-02-13T04:42:25.737Z,102.90
2023-02-13T04:44:52.222Z,112.20
2023-02-13T04:47:18.730Z,106.18
2023-02-13T04:49:45.174Z,108.75
2023-02-13T04:52:11.693Z,117.32
2023-02-13T04:54:38.146Z,118.28
2023-02-13T04:57:04.603Z,103.38
2023-02-13T04:59:31.182Z,123.45
2023-02-13T05:01:59.261Z,123.28
2023-02-13T05:04:25.951Z,111.28
2023-02-13T05:06:52.525Z,113.72
2023-02-13T05:09:18.952Z,109.78
2023-02-13T05:11:45.445Z,156.15
2023-02-13T05:14:12.092Z,136.63
2023-02-13T05:16:38.561Z,127.50
2023-02-13T05:19:04.981Z,132.52
2023-02-13T05:21:49.821Z,130.52
2023-02-13T05:24:16.984Z,124.97
2023-02-13T05:26:44.270Z,114.43
2023-02-13T05:29:19.821Z,106.95
2023-02-13T05:31:56.907Z,134.13
2023-02-13T05:34:24.147Z,111.72
2023-02-13T05:36:50.715Z,104.93
2023-02-13T05:39:17.656Z,104.53
2023-02-13T05:41:44.764Z,106.28
2023-02-13T05:44:11.491Z,106.00
2023-02-13T05:46:39.348Z,118.47
2023-02-13T05:49:06.526Z,114.43
2023-02-13T05:51:33.128Z,118.30
2023-02-13T05:53:59.626Z,109.57
2023-02-13T05:56:26.088Z,114.20
2023-02-13T05:58:53.167Z,110.00
2023-02-13T06:01:19.694Z,123.20
2023-02-13T06:03:46.471Z,135.52
2023-02-13T06:06:13.130Z,125.35
2023-02-13T06:08:39.640Z,132.05
2023-02-13T06:11:06.219Z,124.13
2023-02-13T06:13:32.750Z,131.48
2023-02-13T06:15:59.292Z,127.00
2023-02-13T06:18:25.792Z,122.60
2023-02-13T06:20:52.263Z,119.25
2023-02-13T06:23:18.739Z,122.97
2023-02-13T06:25:47.129Z,114.88
2023-02-13T06:28:13.589Z,128.32
2023-02-13T06:30:40.134Z,118.13
2023-02-13T06:33:06.647Z,133.10
2023-02-13T06:35:33.147Z,166.60
2023-02-13T06:37:59.576Z,147.90
2023-02-13T06:40:26.155Z,157.27
2023-02-13T06:42:52.645Z,161.00
2023-02-13T06:45:19.173Z,178.80
2023-02-13T06:47:46.531Z,173.20
2023-02-13T06:50:14.042Z,166.45
2023-02-13T06:52:45.248Z,152.40
2023-02-13T06:55:11.676Z,110.38
2023-02-13T06:57:38.088Z,124.68
2023-02-13T07:00:05.981Z,134.40
2023-02-13T07:02:33.230Z,127.10
2023-02-13T07:04:59.702Z,120.90
2023-02-13T07:07:26.144Z,119.05
2023-02-13T07:09:52.674Z,116.28
2023-02-13T07:12:19.095Z,107.38
2023-02-13T07:14:45.511Z,110.65
2023-02-13T07:17:11.924Z,110.65
2023-02-13T07:19:38.408Z,116.65
2023-02-13T07:22:04.965Z,103.78
2023-02-13T07:24:33.769Z,105.80
2023-02-13T07:27:00.247Z,108.75
2023-02-13T07:29:26.725Z,91.47
2023-02-13T07:31:53.199Z,86.97
2023-02-13T07:34:19.668Z,93.22
2023-02-13T07:36:46.200Z,99.20
2023-02-13T07:39:12.642Z,90.10
2023-02-13T07:41:39.125Z,97.57
2023-02-13T07:44:05.666Z,92.45
2023-02-13T07:46:32.139Z,101.88
2023-02-13T07:48:58.633Z,110.03
2023-02-13T07:51:25.503Z,144.07
2023-02-13T07:53:52.611Z,105.32
2023-02-13T07:56:19.131Z,107.28
2023-02-13T07:58:45.665Z,97.97
2023-02-13T08:01:16.684Z,98.20
2023-02-13T08:03:43.406Z,104.07
2023-02-13T08:06:09.982Z,94.43
2023-02-13T08:08:36.572Z,101.25
2023-02-13T08:11:25.471Z,59.53
2023-02-13T08:13:51.940Z,79.95
2023-02-13T08:16:18.412Z,74.20
2023-02-13T08:18:44.920Z,85.15
2023-02-13T08:21:11.454Z,54.45
2023-02-13T08:23:37.941Z,53.47
2023-02-13T08:26:04.443Z,52.10
2023-02-13T08:28:31.048Z,55.38
2023-02-13T14:22:28.127Z,23.60
2023-02-13T14:25:02.046Z,23.80
2023-02-13T14:27:33.018Z,27.83
2023-02-13T14:29:59.965Z,23.07
2023-02-13T14:32:33.650Z,27.45
2023-02-13T14:35:02.114Z,22.85
2023-02-13T14:37:31.255Z,24.63
2023-02-13T14:40:11.402Z,29.75
2023-02-13T14:42:39.226Z,28.45
2023-02-13T14:45:13.937Z,24.55
2023-02-13T15:39:09.541Z,34.25
2023-02-13T15:41:38.648Z,30.20
2023-02-13T15:44:05.292Z,24.70
2023-02-13T15:46:33.796Z,27.65
2023-02-13T15:49:01.761Z,35.85
2023-02-13T15:51:29.840Z,29.23
2023-02-13T15:53:57.808Z,33.17
2023-02-13T15:56:24.372Z,29.42
2023-02-13T15:58:51.985Z,29.60
2023-02-13T16:01:18.507Z,32.28
2023-02-13T16:03:49.908Z,28.50
2023-02-13T16:06:17.744Z,40.95
2023-02-13T16:09:04.518Z,35.08
2023-02-13T16:11:34.980Z,33.50
2023-02-13T16:14:13.944Z,32.15
2023-02-13T16:16:45.052Z,33.65
2023-02-13T16:19:34.897Z,35.92
2023-02-13T16:22:20.062Z,36.95
2023-02-13T16:24:51.152Z,45.20
2023-02-13T16:27:18.916Z,45.10
2023-02-13T16:29:54.701Z,43.35
2023-02-13T16:32:29.654Z,36.85
2023-02-13T16:34:56.572Z,43.72
2023-02-13T16:37:27.198Z,39.17
2023-02-13T16:39:53.738Z,46.45
2023-02-13T16:42:20.407Z,37.63
2023-02-13T16:44:46.864Z,37.10
2023-02-13T16:47:24.198Z,42.15
2023-02-13T16:49:55.171Z,45.83
2023-02-13T16:52:26.657Z,42.90
2023-02-13T16:54:55.327Z,50.97
2023-02-13T16:57:23.653Z,54.03
2023-02-13T16:59:55.121Z,46.47
2023-02-13T17:02:25.768Z,51.30
2023-02-13T17:05:07.549Z,56.30
2023-02-13T17:07:35.467Z,59.70
2023-02-13T17:10:01.963Z,49.28
2023-02-13T17:12:29.614Z,51.58
2023-02-13T17:14:59.914Z,62.72
2023-02-13T17:17:28.080Z,61.83
2023-02-13T17:19:54.590Z,49.38
2023-02-13T17:22:37.937Z,58.97
2023-02-13T17:25:07.494Z,66.43
2023-02-13T17:27:34.256Z,63.72
2023-02-13T17:30:00.844Z,65.47
2023-02-13T17:32:27.825Z,56.00
2023-02-13T17:34:54.534Z,52.08
2023-02-13T17:37:27.816Z,50.72
2023-02-13T17:39:54.600Z,46.97
2023-02-13T17:42:25.827Z,53.08
2023-02-13T17:44:53.090Z,51.78
2023-02-13T17:47:19.915Z,53.17
2023-02-13T17:49:47.752Z,65.90
2023-02-13T17:52:16.935Z,59.88
2023-02-13T17:54:44.358Z,57.95
2023-02-13T17:57:11.669Z,57.63
2023-02-13T17:59:38.348Z,58.33
2023-02-13T18:02:09.453Z,61.35
2023-02-13T18:04:35.866Z,49.60
2023-02-13T18:07:02.505Z,49.28
2023-02-13T18:09:28.965Z,51.00
2023-02-13T18:12:05.096Z,55.88
2023-02-13T18:14:32.817Z,63.10
2023-02-13T18:16:59.243Z,55.03
2023-02-13T18:19:25.848Z,50.40
2023-02-13T18:21:52.322Z,58.28
2023-02-13T18:24:18.882Z,56.58
2023-02-13T18:26:45.346Z,63.65
2023-02-13T18:29:11.833Z,59.08
2023-02-13T18:31:38.440Z,62.35
2023-02-13T18:34:04.903Z,61.83
2023-02-13T18:36:31.393Z,78.45
2023-02-13T18:38:57.882Z,70.53
2023-02-13T18:41:24.332Z,69.10
2023-02-13T18:43:50.842Z,64.65
2023-02-13T18:46:17.426Z,82.55
2023-02-13T18:48:43.863Z,80.68
2023-02-13T18:51:10.356Z,79.78
2023-02-13T18:53:36.964Z,65.47
2023-02-13T18:56:04.727Z,65.63
2023-02-13T18:58:31.164Z,66.65
2023-02-13T19:01:04.595Z,65.65
2023-02-13T19:03:31.051Z,73.45
2023-02-13T19:05:58.923Z,64.50
2023-02-13T19:08:25.416Z,73.05
2023-02-13T19:10:51.912Z,70.85
2023-02-13T19:13:18.429Z,71.75
2023-02-13T19:15:44.998Z,66.97
2023-02-13T19:18:11.441Z,69.40
2023-02-13T19:20:39.981Z,68.97
2023-02-13T19:23:06.412Z,71.70
2023-02-13T19:25:35.759Z,69.35
2023-02-13T19:28:02.142Z,73.65
2023-02-13T19:30:28.644Z,72.45
2023-02-13T19:32:55.073Z,69.38
2023-02-13T19:35:21.493Z,69.60
2023-02-13T19:37:47.916Z,71.03
2023-02-13T19:40:14.457Z,74.45
2023-02-13T19:42:40.920Z,63.03
2023-02-13T19:45:07.504Z,66.97
2023-02-13T19:47:34.195Z,69.45
2023-02-13T19:50:00.746Z,73.15
2023-02-13T19:52:27.218Z,69.65
2023-02-13T19:54:54.185Z,64.28
2023-02-13T19:57:21.986Z,67.18
2023-02-13T19:59:48.537Z,64.50
2023-02-13T20:02:15.630Z,76.57
2023-02-13T20:04:42.185Z,77.20
2023-02-13T20:07:08.798Z,74.47
2023-02-13T20:09:35.434Z,73.28
2023-02-13T20:12:01.875Z,72.43
2023-02-13T20:14:28.364Z,77.72
2023-02-13T20:16:54.847Z,71.72
2023-02-13T20:19:21.604Z,78.70
2023-02-13T20:21:48.102Z,85.03
2023-02-13T20:24:14.622Z,73.72
2023-02-13T20:26:41.304Z,70.95
2023-02-13T20:29:08.879Z,75.32
2023-02-13T20:31:35.750Z,78.30
2023-02-13T20:34:02.690Z,73.28
2023-02-13T20:36:30.687Z,81.60
2023-02-13T20:38:59.549Z,74.97
2023-02-13T20:41:26.856Z,80.85
2023-02-13T20:43:53.422Z,85.57
2023-02-13T20:46:19.918Z,78.03
2023-02-13T20:48:47.610Z,75.60
2023-02-13T20:51:15.611Z,82.60
2023-02-13T20:53:42.274Z,85.00
2023-02-13T20:56:19.261Z,74.05
2023-02-13T20:58:46.746Z,77.80
2023-02-13T21:01:14.238Z,84.45
2023-02-13T21:03:41.465Z,76.20
2023-02-13T21:06:08.772Z,75.72
2023-02-13T21:08:35.748Z,76.82
2023-02-13T21:11:02.981Z,86.07
2023-02-13T21:13:29.506Z,84.07
2023-02-13T21:16:03.201Z,78.65
2023-02-13T21:18:29.632Z,84.88
2023-02-13T21:20:57.483Z,97.05
2023-02-13T21:23:24.191Z,87.40
2023-02-13T21:25:50.589Z,89.35
2023-02-13T21:28:17.276Z,87.60
2023-02-13T21:30:43.853Z,84.40
2023-02-13T21:33:10.316Z,89.25
2023-02-13T21:35:36.785Z,89.60
2023-02-13T21:38:03.305Z,89.85
2023-02-13T21:40:29.743Z,90.03
2023-02-13T21:42:56.178Z,101.07
2023-02-13T21:45:22.615Z,142.68
2023-02-13T21:47:49.181Z,161.15
2023-02-13T21:50:15.656Z,163.25
2023-02-13T21:52:42.058Z,158.93
2023-02-13T21:55:08.982Z,140.10
2023-02-13T21:57:35.443Z,123.82
2023-02-13T22:00:04.064Z,135.18
2023-02-13T22:02:30.674Z,125.28
2023-02-13T22:04:57.193Z,114.18
2023-02-13T22:07:23.725Z,122.47
2023-02-13T22:09:50.338Z,119.25
2023-02-13T22:12:16.792Z,105.40
2023-02-13T22:14:43.236Z,106.38
2023-02-13T22:17:09.759Z,117.28
2023-02-13T22:19:36.197Z,119.10
2023-02-13T22:22:02.604Z,99.07
2023-02-13T22:24:29.071Z,94.18
2023-02-13T22:26:55.592Z,104.45
2023-02-13T22:29:23.858Z,93.50
2023-02-13T22:31:50.437Z,81.10
2023-02-13T22:34:16.991Z,83.05
2023-02-13T22:36:43.545Z,80.13
2023-02-13T22:39:10.644Z,81.80
2023-02-13T22:41:37.391Z,85.28
2023-02-13T22:44:03.896Z,89.40
2023-02-13T22:46:31.818Z,90.18
2023-02-13T22:48:58.875Z,87.50
2023-02-13T22:51:28.035Z,88.28
2023-02-13T22:53:55.431Z,78.82
2023-02-13T22:56:22.417Z,76.25
2023-02-13T22:58:48.962Z,87.47
2023-02-13T23:01:16.895Z,75.20
2023-02-13T23:03:43.424Z,81.80
2023-02-13T23:06:22.197Z,76.78
2023-02-13T23:08:53.537Z,72.53
2023-02-13T23:11:39.781Z,86.22
2023-02-13T23:14:06.287Z,80.55
2023-02-13T23:16:52.716Z,80.05
2023-02-13T23:19:19.473Z,73.60
2023-02-13T23:21:45.932Z,82.97
2023-02-13T23:24:12.380Z,76.18
2023-02-13T23:26:39.024Z,88.43
2023-02-13T23:29:05.467Z,94.85
2023-02-13T23:31:32.085Z,95.03
2023-02-13T23:33:58.635Z,96.47
2023-02-13T23:36:25.088Z,99.65
2023-02-13T23:38:51.518Z,88.13
2023-02-13T23:41:18.043Z,85.10
2023-02-13T23:43:44.518Z,79.10
2023-02-13T23:46:10.958Z,85.53
2023-02-13T23:48:37.445Z,79.60
2023-02-13T23:51:04.054Z,81.80
2023-02-13T23:53:30.565Z,76.45
2023-02-13T23:55:57.039Z,73.95
2023-02-13T23:58:23.518Z,74.50
